Time;durP1;ratioP1;P1;durP2;ratioP2;P2;SDS_P1;SDS_P2;PMS_P1;PMS_P2;Temp;Humidity;BMP_temperature;BMP_pressure;BME280_temperature;BME280_humidity;BME280_pressure;Samples;Min_cycle;Max_cycle;Signal;HPM_P1;HPM_P2
2024/04/03 00:00:07;;;;;;;0.20;0.10;;;;;;;;;;5060008;28;20063;-79
2024/04/03 00:02:33;;;;;;;0.20;0.10;;;;;;;;;;5062645;28;20049;-78
2024/04/03 00:04:59;;;;;;;0.73;0.20;;;;;;;;;;5065611;28;20041;-78
2024/04/03 00:07:25;;;;;;;0.20;0.10;;;;;;;;;;5056756;28;20063;-78
2024/04/03 00:09:51;;;;;;;0.20;0.10;;;;;;;;;;5056420;28;20091;-79
2024/04/03 00:12:17;;;;;;;0.20;0.10;;;;;;;;;;5053117;28;20041;-78
2024/04/03 00:14:43;;;;;;;0.20;0.10;;;;;;;;;;5059766;28;20116;-79
2024/04/03 00:17:09;;;;;;;0.20;0.00;;;;;;;;;;5058312;28;20076;-79
2024/04/03 00:19:35;;;;;;;0.20;0.10;;;;;;;;;;5060026;28;20026;-79
2024/04/03 00:22:01;;;;;;;0.20;0.10;;;;;;;;;;5059430;28;20045;-79
2024/04/03 00:24:27;;;;;;;0.20;0.00;;;;;;;;;;5071404;22;20056;-84
2024/04/03 00:26:53;;;;;;;0.20;0.10;;;;;;;;;;5029524;28;20040;-81
2024/04/03 00:29:21;;;;;;;0.20;0.05;;;;;;;;;;5032954;28;20505;-81
2024/04/03 00:31:47;;;;;;;0.20;0.00;;;;;;;;;;5059954;28;20045;-81
2024/04/03 00:34:13;;;;;;;0.20;0.10;;;;;;;;;;5037334;28;20409;-81
2024/04/03 00:36:39;;;;;;;0.20;0.10;;;;;;;;;;5060315;28;20095;-81
2024/04/03 00:39:05;;;;;;;0.20;0.10;;;;;;;;;;5050807;28;20102;-81
2024/04/03 00:41:31;;;;;;;0.20;0.20;;;;;;;;;;5050200;28;20560;-82
2024/04/03 00:43:57;;;;;;;0.20;0.10;;;;;;;;;;5043492;28;20463;-81
2024/04/03 00:46:23;;;;;;;0.20;0.10;;;;;;;;;;5031678;28;20075;-81
2024/04/03 00:48:49;;;;;;;0.28;0.10;;;;;;;;;;5033789;28;20091;-81
2024/04/03 00:51:16;;;;;;;0.20;0.10;;;;;;;;;;5043525;28;20390;-82
2024/04/03 00:53:42;;;;;;;0.20;0.10;;;;;;;;;;5066221;28;20044;-82
2024/04/03 00:56:09;;;;;;;0.20;0.10;;;;;;;;;;5048465;28;20068;-81
2024/04/03 00:58:35;;;;;;;0.20;0.00;;;;;;;;;;5042981;28;20044;-82
2024/04/03 01:01:01;;;;;;;0.20;0.00;;;;;;;;;;5067667;28;20500;-81
2024/04/03 01:03:27;;;;;;;0.20;0.10;;;;;;;;;;5056887;28;20505;-81
2024/04/03 01:06:03;;;;;;;0.20;0.00;;;;;;;;;;5046670;28;20043;-80
2024/04/03 01:08:29;;;;;;;0.20;0.10;;;;;;;;;;5058907;28;20148;-81
2024/04/03 01:10:59;;;;;;;0.20;0.10;;;;;;;;;;5062929;28;20709;-81
2024/04/03 01:13:26;;;;;;;0.20;0.10;;;;;;;;;;5049877;28;20436;-81
2024/04/03 01:16:04;;;;;;;0.20;0.10;;;;;;;;;;5066484;28;20071;-81
2024/04/03 01:18:30;;;;;;;0.20;0.05;;;;;;;;;;5064156;28;20499;-80
2024/04/03 01:20:56;;;;;;;0.20;0.10;;;;;;;;;;5065255;28;20089;-81
2024/04/03 01:23:22;;;;;;;0.20;0.10;;;;;;;;;;5064266;28;20072;-81
2024/04/03 01:25:49;;;;;;;0.20;0.00;;;;;;;;;;5059143;28;20466;-81
2024/04/03 01:28:16;;;;;;;0.20;0.10;;;;;;;;;;5047226;28;20559;-81
2024/04/03 01:30:42;;;;;;;0.20;0.10;;;;;;;;;;5048661;28;20051;-81
2024/04/03 01:33:07;;;;;;;0.20;0.10;;;;;;;;;;5064778;28;20037;-81
2024/04/03 01:35:34;;;;;;;0.20;0.10;;;;;;;;;;5045138;28;20048;-81
2024/04/03 01:38:00;;;;;;;0.20;0.00;;;;;;;;;;5044144;28;20033;-81
2024/04/03 01:40:26;;;;;;;0.20;0.00;;;;;;;;;;5043593;28;20060;-81
2024/04/03 01:42:52;;;;;;;0.20;0.10;;;;;;;;;;5048054;28;20416;-81
2024/04/03 01:45:18;;;;;;;0.20;0.00;;;;;;;;;;5063558;28;20423;-81
2024/04/03 01:47:45;;;;;;;0.20;0.00;;;;;;;;;;5065161;28;20558;-81
2024/04/03 01:50:11;;;;;;;0.20;0.10;;;;;;;;;;5029574;28;20508;-80
2024/04/03 01:52:38;;;;;;;0.20;0.00;;;;;;;;;;5031606;28;20114;-81
2024/04/03 01:55:04;;;;;;;0.20;0.10;;;;;;;;;;5032102;28;20120;-81
2024/04/03 01:57:30;;;;;;;0.20;0.10;;;;;;;;;;5064045;28;20412;-81
2024/04/03 01:59:56;;;;;;;0.20;0.10;;;;;;;;;;5030086;28;20069;-81
2024/04/03 02:02:22;;;;;;;0.20;0.10;;;;;;;;;;5022607;28;20072;-81
2024/04/03 02:04:48;;;;;;;0.20;0.10;;;;;;;;;;5043154;28;20044;-81
2024/04/03 02:07:14;;;;;;;0.20;0.00;;;;;;;;;;5063106;28;20556;-79
2024/04/03 02:09:40;;;;;;;0.20;0.00;;;;;;;;;;5043948;28;20051;-80
2024/04/03 02:12:06;;;;;;;0.20;0.10;;;;;;;;;;5048833;28;20044;-81
2024/04/03 02:14:32;;;;;;;0.20;0.00;;;;;;;;;;5047578;28;20051;-81
2024/04/03 02:16:59;;;;;;;0.20;0.00;;;;;;;;;;5064449;28;20044;-80
2024/04/03 02:19:25;;;;;;;0.20;0.10;;;;;;;;;;5064656;28;20044;-81
2024/04/03 02:21:51;;;;;;;0.20;0.00;;;;;;;;;;5064957;28;20037;-80
2024/04/03 02:24:17;;;;;;;0.20;0.10;;;;;;;;;;5048037;28;20120;-79
2024/04/03 02:26:43;;;;;;;0.20;0.00;;;;;;;;;;5048229;28;20037;-80
2024/04/03 02:29:09;;;;;;;0.20;0.10;;;;;;;;;;5074603;28;20037;-81
2024/04/03 02:31:35;;;;;;;0.38;0.10;;;;;;;;;;5058888;28;20043;-81
2024/04/03 02:34:01;;;;;;;0.20;0.10;;;;;;;;;;5044171;28;20068;-81
2024/04/03 02:36:27;;;;;;;0.20;0.00;;;;;;;;;;5074650;28;20060;-81
2024/04/03 02:38:53;;;;;;;0.20;0.10;;;;;;;;;;5059564;28;20029;-81
2024/04/03 02:41:19;;;;;;;0.20;0.03;;;;;;;;;;5078872;28;20467;-81
2024/04/03 02:43:45;;;;;;;0.20;0.10;;;;;;;;;;5054266;28;20045;-82
2024/04/03 02:46:11;;;;;;;0.20;0.00;;;;;;;;;;5043707;28;20032;-81
2024/04/03 02:48:37;;;;;;;0.20;0.00;;;;;;;;;;5056423;28;20079;-82
2024/04/03 02:51:04;;;;;;;0.20;0.10;;;;;;;;;;5073281;28;20390;-82
2024/04/03 02:53:30;;;;;;;0.20;0.10;;;;;;;;;;5052774;28;20041;-82
2024/04/03 02:56:03;;;;;;;0.20;0.10;;;;;;;;;;5058816;28;20125;-82
2024/04/03 02:58:29;;;;;;;0.20;0.10;;;;;;;;;;5059726;28;20041;-82
2024/04/03 03:01:02;;;;;;;0.20;0.10;;;;;;;;;;5069719;28;20033;-81
2024/04/03 03:03:31;;;;;;;0.20;0.10;;;;;;;;;;5053903;28;20740;-81
2024/04/03 03:06:01;;;;;;;0.20;0.08;;;;;;;;;;5052239;28;20086;-81
2024/04/03 03:08:30;;;;;;;0.20;0.08;;;;;;;;;;5030943;28;20508;-80
2024/04/03 03:10:56;;;;;;;0.20;0.10;;;;;;;;;;5065656;28;20033;-81
2024/04/03 03:13:26;;;;;;;0.20;0.10;;;;;;;;;;5051510;28;20049;-81
2024/04/03 03:15:52;;;;;;;0.20;0.10;;;;;;;;;;5060355;28;20064;-80
2024/04/03 03:18:19;;;;;;;0.20;0.10;;;;;;;;;;5051003;28;20528;-81
2024/04/03 03:20:48;;;;;;;0.20;0.10;;;;;;;;;;5044645;28;20052;-81
2024/04/03 03:23:15;;;;;;;0.20;0.00;;;;;;;;;;5065986;28;20119;-80
2024/04/03 03:25:43;;;;;;;0.20;0.00;;;;;;;;;;5047486;28;20040;-80
2024/04/03 03:28:09;;;;;;;0.30;0.25;;;;;;;;;;5052891;28;20455;-81
2024/04/03 03:30:34;;;;;;;0.20;0.10;;;;;;;;;;5046330;28;20071;-81
2024/04/03 03:33:00;;;;;;;0.20;0.08;;;;;;;;;;5045986;28;20124;-81
2024/04/03 03:35:27;;;;;;;0.20;0.10;;;;;;;;;;5049333;28;20487;-81
2024/04/03 03:37:54;;;;;;;0.20;0.10;;;;;;;;;;5043293;28;20528;-81
2024/04/03 03:40:20;;;;;;;0.57;0.57;;;;;;;;;;5042554;28;20134;-80
2024/04/03 03:42:46;;;;;;;0.20;0.10;;;;;;;;;;5046393;28;20116;-81
2024/04/03 03:45:16;;;;;;;0.20;0.00;;;;;;;;;;5046631;28;20056;-81
2024/04/03 03:47:42;;;;;;;0.20;0.00;;;;;;;;;;5047839;28;20052;-82
2024/04/03 03:52:53;;;;;;;0.20;0.10;;;;;;;;;;5061701;28;20073;-81
2024/04/03 03:55:19;;;;;;;0.20;0.10;;;;;;;;;;5036002;28;20143;-81
2024/04/03 03:57:45;;;;;;;0.20;0.10;;;;;;;;;;5048080;28;20036;-81
2024/04/03 04:00:11;;;;;;;0.20;0.10;;;;;;;;;;5031421;28;20601;-81
2024/04/03 04:02:37;;;;;;;0.20;0.10;;;;;;;;;;5027100;28;20033;-81
2024/04/03 04:05:03;;;;;;;0.20;0.00;;;;;;;;;;5044202;28;20037;-81
2024/04/03 04:07:29;;;;;;;0.20;0.10;;;;;;;;;;5063381;28;20443;-81
2024/04/03 04:09:55;;;;;;;0.20;0.08;;;;;;;;;;5049109;28;20041;-82
2024/04/03 04:12:21;;;;;;;0.20;0.10;;;;;;;;;;5044548;28;20071;-81
2024/04/03 04:14:53;;;;;;;0.73;0.15;;;;;;;;;;5047521;28;20029;-83
2024/04/03 04:17:22;;;;;;;0.20;0.10;;;;;;;;;;5046045;28;20069;-84
2024/04/03 04:19:48;;;;;;;0.20;0.10;;;;;;;;;;5045214;28;20096;-84
2024/04/03 04:22:15;;;;;;;0.30;0.20;;;;;;;;;;5045082;28;20164;-81
2024/04/03 04:24:41;;;;;;;0.20;0.00;;;;;;;;;;5029568;28;20061;-81
2024/04/03 04:27:08;;;;;;;0.20;0.00;;;;;;;;;;5060999;28;20520;-81
2024/04/03 04:29:37;;;;;;;0.20;0.10;;;;;;;;;;5062868;28;20044;-80
2024/04/03 04:32:10;;;;;;;0.20;0.05;;;;;;;;;;5061365;28;20044;-81
2024/04/03 04:34:42;;;;;;;0.20;0.10;;;;;;;;;;5061482;28;20444;-80
2024/04/03 04:37:08;;;;;;;0.20;0.10;;;;;;;;;;5043982;28;20517;-80
2024/04/03 04:39:35;;;;;;;1.85;0.43;;;;;;;;;;5047212;28;20048;-80
2024/04/03 04:42:01;;;;;;;0.20;0.03;;;;;;;;;;5046782;28;20044;-80
2024/04/03 04:44:27;;;;;;;0.20;0.10;;;;;;;;;;5047401;28;20132;-80
2024/04/03 04:46:54;;;;;;;0.20;0.08;;;;;;;;;;5062228;28;20068;-80
2024/04/03 04:49:21;;;;;;;0.20;0.00;;;;;;;;;;5045955;28;20048;-80
2024/04/03 04:51:47;;;;;;;0.20;0.10;;;;;;;;;;5064712;28;20128;-80
2024/04/03 04:54:15;;;;;;;0.20;0.10;;;;;;;;;;5048304;28;20040;-80
2024/04/03 04:56:41;;;;;;;0.20;0.10;;;;;;;;;;5045786;28;20535;-80
2024/04/03 04:59:08;;;;;;;0.20;0.10;;;;;;;;;;5043444;28;20701;-80
2024/04/03 05:01:34;;;;;;;0.20;0.10;;;;;;;;;;5046583;28;20037;-81
2024/04/03 05:04:01;;;;;;;0.20;0.10;;;;;;;;;;5046211;28;20037;-80
2024/04/03 05:06:27;;;;;;;0.30;0.20;;;;;;;;;;5043813;28;20255;-80
2024/04/03 05:08:53;;;;;;;0.35;0.35;;;;;;;;;;5047967;28;20064;-80
2024/04/03 05:11:19;;;;;;;0.20;0.10;;;;;;;;;;5049278;28;20056;-80
2024/04/03 05:13:45;;;;;;;0.45;0.15;;;;;;;;;;5049745;28;20049;-80
2024/04/03 05:16:12;;;;;;;0.20;0.10;;;;;;;;;;5050726;28;20116;-81
2024/04/03 05:18:38;;;;;;;0.35;0.15;;;;;;;;;;5052694;28;20036;-79
2024/04/03 05:21:05;;;;;;;0.20;0.10;;;;;;;;;;5054764;28;20558;-80
2024/04/03 05:23:31;;;;;;;0.20;0.10;;;;;;;;;;5050764;28;20471;-80
2024/04/03 05:25:58;;;;;;;0.20;0.10;;;;;;;;;;5054092;28;20382;-81
2024/04/03 05:28:25;;;;;;;0.20;0.10;;;;;;;;;;5051591;28;20040;-80
2024/04/03 05:30:51;;;;;;;0.20;0.10;;;;;;;;;;5048675;28;20102;-81
2024/04/03 05:33:17;;;;;;;0.20;0.10;;;;;;;;;;5054112;28;20484;-81
2024/04/03 05:35:43;;;;;;;0.20;0.10;;;;;;;;;;5036166;28;20041;-81
2024/04/03 05:38:09;;;;;;;0.52;0.32;;;;;;;;;;5036749;28;20114;-80
2024/04/03 05:40:35;;;;;;;0.40;0.20;;;;;;;;;;5050428;28;20044;-80
2024/04/03 05:43:01;;;;;;;0.20;0.00;;;;;;;;;;5045940;28;20471;-80
2024/04/03 05:45:27;;;;;;;0.20;0.03;;;;;;;;;;5053155;28;20505;-81
2024/04/03 05:47:53;;;;;;;0.20;0.20;;;;;;;;;;5051198;28;20091;-80
2024/04/03 05:50:19;;;;;;;0.20;0.10;;;;;;;;;;5040452;28;20045;-80
2024/04/03 05:52:45;;;;;;;0.20;0.10;;;;;;;;;;5066608;28;20048;-82
2024/04/03 05:55:13;;;;;;;0.20;0.10;;;;;;;;;;5062543;28;20554;-81
2024/04/03 05:57:39;;;;;;;0.20;0.10;;;;;;;;;;5045541;28;20029;-81
2024/04/03 06:00:07;;;;;;;0.20;0.05;;;;;;;;;;5031488;28;20036;-80
2024/04/03 06:02:33;;;;;;;0.20;0.10;;;;;;;;;;5045791;28;20045;-81
2024/04/03 06:04:59;;;;;;;0.20;0.10;;;;;;;;;;5065490;28;20048;-81
2024/04/03 06:07:25;;;;;;;0.20;0.00;;;;;;;;;;5052098;28;20041;-81
2024/04/03 06:09:51;;;;;;;0.20;0.10;;;;;;;;;;5028977;28;20048;-80
2024/04/03 06:12:17;;;;;;;0.20;0.00;;;;;;;;;;5035082;28;20079;-80
2024/04/03 06:14:43;;;;;;;0.20;0.10;;;;;;;;;;5038128;28;20132;-80
2024/04/03 06:17:09;;;;;;;0.20;0.10;;;;;;;;;;5057896;28;20030;-80
2024/04/03 06:19:35;;;;;;;0.30;0.20;;;;;;;;;;5043776;28;21615;-81
2024/04/03 06:22:01;;;;;;;0.20;0.10;;;;;;;;;;5064639;28;20033;-81
2024/04/03 06:24:27;;;;;;;0.20;0.17;;;;;;;;;;5047683;22;20052;-82
2024/04/03 06:26:53;;;;;;;0.30;0.20;;;;;;;;;;5050645;28;20045;-84
2024/04/03 06:29:20;;;;;;;0.20;0.10;;;;;;;;;;5040997;28;20048;-82
2024/04/03 06:31:47;;;;;;;0.30;0.20;;;;;;;;;;5044366;28;20131;-82
2024/04/03 06:34:14;;;;;;;0.20;0.10;;;;;;;;;;5031125;28;20489;-83
2024/04/03 06:36:40;;;;;;;0.20;0.10;;;;;;;;;;5036403;28;20064;-82
2024/04/03 06:39:07;;;;;;;0.20;0.10;;;;;;;;;;5047042;28;20053;-82
2024/04/03 06:41:33;;;;;;;0.20;0.10;;;;;;;;;;5044882;28;21693;-82
2024/04/03 06:43:59;;;;;;;0.20;0.10;;;;;;;;;;5047255;28;20044;-83
2024/04/03 06:46:25;;;;;;;0.20;0.10;;;;;;;;;;5040208;28;20116;-81
2024/04/03 06:48:51;;;;;;;0.77;0.20;;;;;;;;;;5041660;28;20083;-82
2024/04/03 06:51:17;;;;;;;0.20;0.10;;;;;;;;;;5033729;28;20057;-82
2024/04/03 06:53:44;;;;;;;0.20;0.08;;;;;;;;;;5046843;28;20043;-83
2024/04/03 06:56:10;;;;;;;0.20;0.10;;;;;;;;;;5046232;28;20039;-82
2024/04/03 06:58:41;;;;;;;0.20;0.10;;;;;;;;;;5037179;28;20053;-82
2024/04/03 07:01:07;;;;;;;0.20;0.10;;;;;;;;;;5035930;28;20041;-82
2024/04/03 07:03:34;;;;;;;0.20;0.00;;;;;;;;;;5043831;28;20036;-83
2024/04/03 07:06:00;;;;;;;0.20;0.00;;;;;;;;;;5031698;28;20519;-82
2024/04/03 07:08:26;;;;;;;0.20;0.00;;;;;;;;;;5052265;28;20040;-82
2024/04/03 07:10:52;;;;;;;0.20;0.08;;;;;;;;;;5034221;28;20083;-83
2024/04/03 07:13:18;;;;;;;0.20;0.10;;;;;;;;;;5029083;28;20048;-84
2024/04/03 07:15:48;;;;;;;0.20;0.10;;;;;;;;;;5024114;28;20223;-83
2024/04/03 07:18:14;;;;;;;0.20;0.10;;;;;;;;;;5028480;28;20042;-82
2024/04/03 07:20:41;;;;;;;0.20;0.10;;;;;;;;;;5047158;28;20678;-83
2024/04/03 07:23:08;;;;;;;0.32;0.22;;;;;;;;;;5032110;28;20036;-82
2024/04/03 07:25:35;;;;;;;0.20;0.17;;;;;;;;;;5029086;28;20045;-83
2024/04/03 07:28:11;;;;;;;0.20;0.10;;;;;;;;;;5041046;28;20069;-82
2024/04/03 07:30:39;;;;;;;0.20;0.10;;;;;;;;;;5025843;28;20519;-83
2024/04/03 07:33:05;;;;;;;0.20;0.10;;;;;;;;;;5030588;28;20043;-83
2024/04/03 07:35:31;;;;;;;0.20;0.10;;;;;;;;;;5032941;28;20137;-82
2024/04/03 07:37:57;;;;;;;0.20;0.00;;;;;;;;;;5027820;28;20045;-81
2024/04/03 07:40:23;;;;;;;0.20;0.10;;;;;;;;;;5039855;28;20293;-82
2024/04/03 07:42:49;;;;;;;0.20;0.10;;;;;;;;;;5039525;28;20014;-82
2024/04/03 07:45:15;;;;;;;0.20;0.00;;;;;;;;;;5031721;28;20283;-82
2024/04/03 07:47:42;;;;;;;0.20;0.10;;;;;;;;;;5042983;28;20044;-82
2024/04/03 07:50:08;;;;;;;0.20;0.00;;;;;;;;;;5028824;28;20033;-83
2024/04/03 07:52:38;;;;;;;0.20;0.10;;;;;;;;;;5043861;28;20065;-82
2024/04/03 07:55:08;;;;;;;0.20;0.10;;;;;;;;;;5029672;28;20037;-81
2024/04/03 07:57:34;;;;;;;1.05;0.20;;;;;;;;;;5029020;28;20048;-82
2024/04/03 08:00:01;;;;;;;0.20;0.08;;;;;;;;;;5034344;28;20067;-82
2024/04/03 08:02:27;;;;;;;0.43;0.40;;;;;;;;;;5037768;28;20076;-82
2024/04/03 08:04:54;;;;;;;0.20;0.03;;;;;;;;;;5031194;28;20489;-82
2024/04/03 08:07:20;;;;;;;0.45;0.35;;;;;;;;;;5043368;28;20048;-82
2024/04/03 08:09:46;;;;;;;0.20;0.20;;;;;;;;;;5038520;28;20056;-82
2024/04/03 08:12:12;;;;;;;0.20;0.08;;;;;;;;;;5027773;28;20187;-82
2024/04/03 08:14:38;;;;;;;0.20;0.00;;;;;;;;;;5027629;28;20512;-82
2024/04/03 08:17:04;;;;;;;0.20;0.00;;;;;;;;;;5031856;28;20068;-83
2024/04/03 08:19:30;;;;;;;0.20;0.10;;;;;;;;;;5029260;28;20101;-82
2024/04/03 08:21:56;;;;;;;0.20;0.00;;;;;;;;;;5027800;28;20752;-85
2024/04/03 08:24:23;;;;;;;0.20;0.10;;;;;;;;;;5028174;28;20127;-83
2024/04/03 08:26:49;;;;;;;0.20;0.10;;;;;;;;;;5029739;28;20127;-82
2024/04/03 08:29:17;;;;;;;0.20;0.00;;;;;;;;;;5038883;28;20561;-82
2024/04/03 08:31:43;;;;;;;0.20;0.10;;;;;;;;;;5029129;28;20044;-82
2024/04/03 08:34:09;;;;;;;0.20;0.10;;;;;;;;;;5042121;28;20045;-82
2024/04/03 08:36:35;;;;;;;0.20;0.10;;;;;;;;;;5040111;28;20110;-82
2024/04/03 08:39:02;;;;;;;0.20;0.10;;;;;;;;;;5038799;28;20489;-81
2024/04/03 08:41:28;;;;;;;0.20;0.10;;;;;;;;;;5028110;28;20381;-82
2024/04/03 08:43:54;;;;;;;0.20;0.00;;;;;;;;;;5031822;28;20037;-82
2024/04/03 08:46:21;;;;;;;0.20;0.10;;;;;;;;;;5039008;28;20079;-82
2024/04/03 08:48:48;;;;;;;0.20;0.10;;;;;;;;;;5042464;28;20041;-82
2024/04/03 08:51:18;;;;;;;0.20;0.10;;;;;;;;;;5041675;28;20041;-83
2024/04/03 08:53:44;;;;;;;0.20;0.10;;;;;;;;;;5043944;28;20073;-83
2024/04/03 08:56:14;;;;;;;0.20;0.10;;;;;;;;;;5041597;28;20090;-82
2024/04/03 08:58:41;;;;;;;0.20;0.00;;;;;;;;;;5032295;28;20040;-83
2024/04/03 09:01:08;;;;;;;0.30;0.17;;;;;;;;;;5033008;28;20033;-82
2024/04/03 09:03:34;;;;;;;0.20;0.10;;;;;;;;;;5031491;28;20075;-82
2024/04/03 09:06:00;;;;;;;0.20;0.10;;;;;;;;;;5032581;28;20075;-82
2024/04/03 09:08:26;;;;;;;0.20;0.00;;;;;;;;;;5041881;28;20076;-82
2024/04/03 09:11:01;;;;;;;0.20;0.00;;;;;;;;;;5031685;28;20040;-82
2024/04/03 09:13:27;;;;;;;0.20;0.00;;;;;;;;;;5041866;28;20064;-84
2024/04/03 09:15:53;;;;;;;0.20;0.03;;;;;;;;;;5029529;28;20040;-82
2024/04/03 09:18:19;;;;;;;0.20;0.10;;;;;;;;;;5028137;28;20048;-82
2024/04/03 09:20:50;;;;;;;0.20;0.00;;;;;;;;;;5032030;28;20063;-83
2024/04/03 09:23:16;;;;;;;0.20;0.00;;;;;;;;;;5031160;28;20164;-84
2024/04/03 09:25:42;;;;;;;0.20;0.10;;;;;;;;;;5043347;28;20048;-83
2024/04/03 09:28:09;;;;;;;0.22;0.20;;;;;;;;;;5027279;28;20103;-82
2024/04/03 09:30:38;;;;;;;0.20;0.10;;;;;;;;;;5042701;28;20720;-83
2024/04/03 09:33:05;;;;;;;0.20;0.00;;;;;;;;;;5032627;28;20036;-82
2024/04/03 09:35:35;;;;;;;0.20;0.10;;;;;;;;;;5038431;28;20238;-83
2024/04/03 09:38:02;;;;;;;0.20;0.08;;;;;;;;;;5032040;28;20091;-81
2024/04/03 09:40:29;;;;;;;0.28;0.17;;;;;;;;;;5047356;28;20041;-84
2024/04/03 09:43:09;;;;;;;0.20;0.10;;;;;;;;;;5032969;28;20039;-84
2024/04/03 09:45:35;;;;;;;0.20;0.10;;;;;;;;;;5039766;28;20060;-83
2024/04/03 09:48:03;;;;;;;0.20;0.00;;;;;;;;;;5027316;28;20067;-84
2024/04/03 09:50:40;;;;;;;0.20;0.13;;;;;;;;;;5042620;28;20043;-83
2024/04/03 09:53:07;;;;;;;0.20;0.00;;;;;;;;;;5031304;28;20128;-84
2024/04/03 09:55:34;;;;;;;0.20;0.00;;;;;;;;;;5036433;28;20033;-83
2024/04/03 09:58:04;;;;;;;0.28;0.22;;;;;;;;;;5034698;28;20520;-84
2024/04/03 10:00:30;;;;;;;0.20;0.00;;;;;;;;;;5034121;28;20082;-83
2024/04/03 10:02:57;;;;;;;0.20;0.05;;;;;;;;;;5030519;28;20044;-85
2024/04/03 10:05:42;;;;;;;0.20;0.00;;;;;;;;;;5042793;28;20052;-82
2024/04/03 10:08:12;;;;;;;0.20;0.00;;;;;;;;;;5030571;28;20059;-85
2024/04/03 10:10:47;;;;;;;0.20;0.00;;;;;;;;;;5031111;28;20037;-83
2024/04/03 10:13:24;;;;;;;0.20;0.10;;;;;;;;;;5041902;28;20571;-83
2024/04/03 10:16:02;;;;;;;0.20;0.10;;;;;;;;;;5045379;28;20041;-83
2024/04/03 10:18:28;;;;;;;0.20;0.10;;;;;;;;;;5031061;28;20462;-83
2024/04/03 10:20:57;;;;;;;0.20;0.10;;;;;;;;;;5042432;28;20045;-82
2024/04/03 10:23:27;;;;;;;0.20;0.10;;;;;;;;;;5045879;28;20122;-83
2024/04/03 10:25:53;;;;;;;0.90;0.63;;;;;;;;;;5033544;28;20052;-83
2024/04/03 10:28:19;;;;;;;0.20;0.00;;;;;;;;;;5037107;28;20075;-83
2024/04/03 10:30:54;;;;;;;0.20;0.00;;;;;;;;;;5041102;28;20079;-82
2024/04/03 10:33:20;;;;;;;0.20;0.00;;;;;;;;;;5051586;28;20048;-83
2024/04/03 10:35:46;;;;;;;0.20;0.10;;;;;;;;;;5031759;28;20148;-82
2024/04/03 10:38:12;;;;;;;0.20;0.10;;;;;;;;;;5039418;28;20045;-83
2024/04/03 10:40:38;;;;;;;0.20;0.00;;;;;;;;;;5031899;28;20037;-83
2024/04/03 10:43:04;;;;;;;0.20;0.00;;;;;;;;;;5040372;28;20444;-82
2024/04/03 10:45:30;;;;;;;0.20;0.10;;;;;;;;;;5031765;28;20139;-83
2024/04/03 10:47:56;;;;;;;0.20;0.10;;;;;;;;;;5039250;28;20041;-82
2024/04/03 10:50:23;;;;;;;0.30;0.20;;;;;;;;;;5029653;28;20033;-81
2024/04/03 10:52:50;;;;;;;0.20;0.10;;;;;;;;;;5033092;28;20036;-83
2024/04/03 10:55:20;;;;;;;0.30;0.20;;;;;;;;;;5028213;28;20108;-82
2024/04/03 10:57:52;;;;;;;0.25;0.20;;;;;;;;;;5029105;28;20043;-83
2024/04/03 11:00:20;;;;;;;0.20;0.10;;;;;;;;;;5028420;28;20088;-85
2024/04/03 11:02:46;;;;;;;0.20;0.00;;;;;;;;;;5031520;28;20037;-82
2024/04/03 11:05:15;;;;;;;0.20;0.00;;;;;;;;;;5022965;28;20043;-83
2024/04/03 11:07:45;;;;;;;0.20;0.10;;;;;;;;;;5027208;28;20040;-83
2024/04/03 11:10:12;;;;;;;0.20;0.10;;;;;;;;;;5029215;28;20128;-83
2024/04/03 11:12:38;;;;;;;0.20;0.10;;;;;;;;;;5043211;28;20079;-82
2024/04/03 11:15:09;;;;;;;0.68;0.22;;;;;;;;;;5030705;28;20041;-83
2024/04/03 11:17:36;;;;;;;0.30;0.20;;;;;;;;;;5043392;28;20045;-83
2024/04/03 11:20:02;;;;;;;0.20;0.10;;;;;;;;;;5035346;28;20370;-82
2024/04/03 11:22:29;;;;;;;0.30;0.30;;;;;;;;;;5045187;28;20064;-81
2024/04/03 11:24:55;;;;;;;0.20;0.00;;;;;;;;;;5048978;28;20037;-82
2024/04/03 11:27:22;;;;;;;0.20;0.10;;;;;;;;;;5034183;28;20045;-82
2024/04/03 11:29:48;;;;;;;0.20;0.00;;;;;;;;;;5042604;28;20064;-83
2024/04/03 11:32:16;;;;;;;0.20;0.20;;;;;;;;;;5043548;28;20041;-82
2024/04/03 11:34:42;;;;;;;0.20;0.10;;;;;;;;;;5044462;28;20041;-82
2024/04/03 11:37:08;;;;;;;0.30;0.20;;;;;;;;;;5043615;28;20108;-83
2024/04/03 11:39:34;;;;;;;0.20;0.00;;;;;;;;;;5041049;28;20612;-83
2024/04/03 11:42:03;;;;;;;0.20;0.10;;;;;;;;;;5029852;28;20124;-82
2024/04/03 11:44:29;;;;;;;0.20;0.08;;;;;;;;;;5027664;28;20049;-81
2024/04/03 11:46:55;;;;;;;0.30;0.20;;;;;;;;;;5044983;28;20120;-82
2024/04/03 11:49:21;;;;;;;0.20;0.05;;;;;;;;;;5046395;28;20045;-81
2024/04/03 11:51:48;;;;;;;0.20;0.00;;;;;;;;;;5028103;28;20041;-81
2024/04/03 11:54:14;;;;;;;0.20;0.10;;;;;;;;;;5030666;28;20315;-86
2024/04/03 11:56:40;;;;;;;0.20;0.20;;;;;;;;;;5031319;28;20033;-82
2024/04/03 11:59:09;;;;;;;0.20;0.00;;;;;;;;;;5033558;28;20032;-83
2024/04/03 12:01:39;;;;;;;0.20;0.10;;;;;;;;;;5046013;28;20563;-81
2024/04/03 12:04:05;;;;;;;0.85;0.17;;;;;;;;;;5042009;28;20033;-81
2024/04/03 12:06:31;;;;;;;0.75;0.20;;;;;;;;;;5045741;28;20155;-81
2024/04/03 12:08:57;;;;;;;0.20;0.03;;;;;;;;;;5048747;28;20068;-82
2024/04/03 12:11:23;;;;;;;0.20;0.10;;;;;;;;;;5048342;28;20132;-81
2024/04/03 12:13:49;;;;;;;0.55;0.30;;;;;;;;;;5035273;28;20037;-80
2024/04/03 12:16:20;;;;;;;0.20;0.10;;;;;;;;;;5045206;28;20095;-82
2024/04/03 12:18:50;;;;;;;0.20;0.10;;;;;;;;;;5030911;28;20467;-82
2024/04/03 12:21:17;;;;;;;0.20;0.00;;;;;;;;;;5044136;28;20485;-82
2024/04/03 12:23:44;;;;;;;0.20;0.20;;;;;;;;;;5038843;28;20038;-83
2024/04/03 12:26:11;;;;;;;0.20;0.00;;;;;;;;;;5043037;28;20049;-84
2024/04/03 12:28:37;;;;;;;0.20;0.00;;;;;;;;;;5030790;28;20048;-82
2024/04/03 12:31:03;;;;;;;0.25;0.20;;;;;;;;;;5048593;28;20068;-80
2024/04/03 12:33:29;;;;;;;0.20;0.10;;;;;;;;;;5040572;28;20095;-80
2024/04/03 12:35:55;;;;;;;0.20;0.10;;;;;;;;;;5046901;28;20037;-82
2024/04/03 12:38:21;;;;;;;0.20;0.03;;;;;;;;;;5044530;28;20045;-83
2024/04/03 12:40:47;;;;;;;0.20;0.00;;;;;;;;;;5036982;28;20471;-82
2024/04/03 12:43:13;;;;;;;0.20;0.10;;;;;;;;;;5044539;28;20033;-81
2024/04/03 12:45:39;;;;;;;0.20;0.00;;;;;;;;;;5040759;28;20127;-84
2024/04/03 12:48:06;;;;;;;0.32;0.28;;;;;;;;;;5047073;28;20069;-81
2024/04/03 12:50:32;;;;;;;0.20;0.10;;;;;;;;;;5026923;28;20049;-82
2024/04/03 12:52:59;;;;;;;0.20;0.00;;;;;;;;;;5027273;28;20061;-81
2024/04/03 12:55:25;;;;;;;0.20;0.10;;;;;;;;;;5048039;28;20025;-81
2024/04/03 12:57:51;;;;;;;0.20;0.10;;;;;;;;;;5041223;28;20045;-81
2024/04/03 13:00:17;;;;;;;0.20;0.08;;;;;;;;;;5032472;28;20048;-84
2024/04/03 13:02:43;;;;;;;0.20;0.00;;;;;;;;;;5047353;28;20037;-81
2024/04/03 13:05:09;;;;;;;0.20;0.10;;;;;;;;;;5043910;28;20048;-82
2024/04/03 13:07:36;;;;;;;0.20;0.10;;;;;;;;;;5038863;28;20038;-82
2024/04/03 13:10:02;;;;;;;0.20;0.10;;;;;;;;;;5040023;28;20107;-82
2024/04/03 13:12:28;;;;;;;0.20;0.00;;;;;;;;;;5050067;28;20495;-82
2024/04/03 13:14:54;;;;;;;0.20;0.17;;;;;;;;;;5035774;28;20040;-81
2024/04/03 13:17:20;;;;;;;0.20;0.10;;;;;;;;;;5042070;28;20185;-82
2024/04/03 13:19:46;;;;;;;0.20;0.10;;;;;;;;;;5048511;28;20041;-82
2024/04/03 13:22:16;;;;;;;0.20;0.10;;;;;;;;;;5037761;28;20041;-82
2024/04/03 13:24:43;;;;;;;0.20;0.10;;;;;;;;;;5044133;28;20049;-79
2024/04/03 13:27:09;;;;;;;0.20;0.00;;;;;;;;;;5042908;28;20117;-78
2024/04/03 13:29:35;;;;;;;0.20;0.10;;;;;;;;;;5046524;28;20102;-79
2024/04/03 13:32:02;;;;;;;0.20;0.10;;;;;;;;;;5033195;28;20037;-78
2024/04/03 13:34:28;;;;;;;0.20;0.00;;;;;;;;;;5052187;28;20036;-79
2024/04/03 13:36:54;;;;;;;0.20;0.13;;;;;;;;;;5047531;28;20040;-78
2024/04/03 13:39:20;;;;;;;0.20;0.10;;;;;;;;;;5050643;28;21017;-78
2024/04/03 13:41:46;;;;;;;0.20;0.10;;;;;;;;;;5047875;28;20562;-80
2024/04/03 13:44:12;;;;;;;0.20;0.00;;;;;;;;;;5027277;28;20037;-80
2024/04/03 13:46:38;;;;;;;0.20;0.10;;;;;;;;;;5035650;28;20174;-81
2024/04/03 13:49:04;;;;;;;0.20;0.10;;;;;;;;;;5036699;28;20092;-78
2024/04/03 13:51:30;;;;;;;0.38;0.30;;;;;;;;;;5033306;28;20337;-79
2024/04/03 13:53:56;;;;;;;0.20;0.00;;;;;;;;;;5051759;28;20033;-78
2024/04/03 13:56:23;;;;;;;0.20;0.20;;;;;;;;;;5043560;28;20540;-79
2024/04/03 13:58:49;;;;;;;0.20;0.00;;;;;;;;;;5048691;28;20072;-79
2024/04/03 14:01:16;;;;;;;0.20;0.10;;;;;;;;;;5044902;28;20029;-78
2024/04/03 14:03:42;;;;;;;0.20;0.00;;;;;;;;;;5044280;28;20104;-78
2024/04/03 14:06:08;;;;;;;0.20;0.00;;;;;;;;;;5039217;28;20047;-80
2024/04/03 14:08:37;;;;;;;0.20;0.00;;;;;;;;;;5055890;28;20045;-80
2024/04/03 14:11:03;;;;;;;0.20;0.10;;;;;;;;;;5050913;28;20072;-80
2024/04/03 14:13:29;;;;;;;0.20;0.05;;;;;;;;;;5054334;28;20214;-80
2024/04/03 14:15:55;;;;;;;0.30;0.17;;;;;;;;;;5037369;28;20047;-79
2024/04/03 14:18:22;;;;;;;0.20;0.10;;;;;;;;;;5052343;28;20049;-80
2024/04/03 14:20:49;;;;;;;0.20;0.10;;;;;;;;;;5050061;28;20066;-81
2024/04/03 14:23:15;;;;;;;0.20;0.20;;;;;;;;;;5051217;28;20029;-80
2024/04/03 14:25:44;;;;;;;0.20;0.10;;;;;;;;;;5051975;28;20037;-80
2024/04/03 14:28:10;;;;;;;0.20;0.10;;;;;;;;;;5040612;28;20112;-80
2024/04/03 14:30:38;;;;;;;0.20;0.00;;;;;;;;;;5051013;28;20041;-80
2024/04/03 14:33:04;;;;;;;0.20;0.03;;;;;;;;;;5040240;28;20050;-80
2024/04/03 14:35:30;;;;;;;0.20;0.10;;;;;;;;;;5047575;28;20042;-82
2024/04/03 14:37:57;;;;;;;0.20;0.10;;;;;;;;;;5056891;28;20199;-81
2024/04/03 14:40:26;;;;;;;0.20;0.20;;;;;;;;;;5037617;28;20040;-82
2024/04/03 14:42:52;;;;;;;0.20;0.00;;;;;;;;;;5053881;28;20571;-79